Time;durP1;ratioP1;P1;durP2;ratioP2;P2;SDS_P1;SDS_P2;PMS_P1;PMS_P2;Temp;Humidity;BMP_temperature;BMP_pressure;BME280_temperature;BME280_humidity;BME280_pressure;Samples;Min_cycle;Max_cycle;Signal;HPM_P1;HPM_P2
2023/03/29 00:00:34;;;;;;;4.78;1.60;;;;;;;7.27;87.98;100788.47;4958436;28;20495;-90
2023/03/29 00:03:02;;;;;;;2.83;1.40;;;;;;;6.69;87.52;100665.44;4957618;28;20085;-91
2023/03/29 00:05:36;;;;;;;2.88;1.80;;;;;;;6.93;87.29;100704.25;4959741;28;20078;-92
2023/03/29 00:08:03;;;;;;;2.38;1.45;;;;;;;6.84;87.95;100682.56;4976880;28;20114;-91
2023/03/29 00:10:32;;;;;;;2.20;1.48;;;;;;;7.08;88.56;100713.53;4975324;28;20057;-90
2023/03/29 00:13:01;;;;;;;2.13;1.70;;;;;;;6.98;88.83;100702.34;4973462;28;20066;-90
2023/03/29 00:15:28;;;;;;;5.65;1.85;;;;;;;7.18;89.36;100743.94;4962760;28;20038;-89
2023/03/29 00:17:56;;;;;;;4.50;1.85;;;;;;;7.14;88.87;100737.03;4974778;28;20059;-90
2023/03/29 00:20:25;;;;;;;2.85;1.70;;;;;;;7.15;90.57;100744.03;4960111;28;20069;-88
2023/03/29 00:22:54;;;;;;;3.13;1.50;;;;;;;6.81;90.99;100687.91;4972248;28;20073;-86
2023/03/29 00:25:21;;;;;;;4.22;1.65;;;;;;;6.96;91.96;100706.78;4969034;28;20047;-87
2023/03/29 00:27:48;;;;;;;3.92;2.03;;;;;;;7.05;91.96;100724.13;4990925;28;20035;-87
2023/03/29 00:30:17;;;;;;;1.52;1.30;;;;;;;7.13;92.28;100745.84;4987960;28;20066;-86
2023/03/29 00:32:46;;;;;;;2.38;1.30;;;;;;;6.84;92.66;100714.16;4971868;28;20043;-90
2023/03/29 00:35:13;;;;;;;5.32;1.77;;;;;;;6.94;93.63;100741.97;4971106;28;20057;-91
2023/03/29 00:37:46;;;;;;;2.83;1.42;;;;;;;6.69;94.74;100700.50;4960054;28;20047;-91
2023/03/29 00:40:14;;;;;;;3.03;1.70;;;;;;;6.77;95.80;100720.50;4962829;28;20047;-93
2023/03/29 00:42:44;;;;;;;2.65;1.30;;;;;;;6.92;96.04;100728.88;4955668;28;20054;-92
2023/03/29 00:45:13;;;;;;;3.15;1.55;;;;;;;6.90;95.97;100724.53;4960504;28;20062;-94
2023/03/29 00:47:44;;;;;;;3.20;1.60;;;;;;;6.46;95.75;100655.50;4965060;28;20042;-90
2023/03/29 00:50:24;;;;;;;3.15;1.50;;;;;;;6.33;97.35;100627.78;4979595;28;20077;-94
2023/03/29 00:53:13;;;;;;;1.50;1.20;;;;;;;6.99;96.40;100719.03;4969714;28;20082;-89
2023/03/29 00:56:00;;;;;;;2.72;1.40;;;;;;;7.03;96.23;100723.31;4980210;28;20070;-92
2023/03/29 00:58:34;;;;;;;2.72;1.52;;;;;;;7.04;96.25;100718.00;4968024;28;20042;-91
2023/03/29 01:01:12;;;;;;;3.50;1.40;;;;;;;7.08;96.01;100717.91;4990673;28;20046;-85
2023/03/29 01:03:46;;;;;;;2.90;1.52;;;;;;;6.88;94.64;100685.09;4976479;28;20079;-88
2023/03/29 01:06:30;;;;;;;3.15;2.08;;;;;;;6.94;95.39;100692.81;4980721;28;20055;-89
2023/03/29 01:09:09;;;;;;;1.17;1.05;;;;;;;6.81;94.59;100646.66;4982012;28;20045;-86
2023/03/29 01:11:49;;;;;;;2.22;1.52;;;;;;;7.26;94.17;100704.22;4997493;28;20043;-91
2023/03/29 01:14:35;;;;;;;2.83;1.25;;;;;;;7.36;92.29;100703.06;4988293;28;20039;-89
2023/03/29 01:17:06;;;;;;;3.92;1.50;;;;;;;7.33;92.32;100708.41;4977226;28;20102;-90
2023/03/29 01:19:46;;;;;;;3.85;1.45;;;;;;;6.97;92.21;100644.47;4981241;28;20047;-89
2023/03/29 01:22:48;;;;;;;2.63;1.50;;;;;;;6.74;92.90;100612.69;4981883;28;20050;-91
2023/03/29 01:25:35;;;;;;;2.60;1.40;;;;;;;6.89;92.96;100643.84;4968399;28;20066;-90
2023/03/29 01:28:27;;;;;;;2.75;1.40;;;;;;;6.64;94.26;100597.13;4981313;28;20405;-93
2023/03/29 01:31:13;;;;;;;2.30;1.65;;;;;;;7.17;94.43;100676.38;4969542;28;20097;-89
2023/03/29 01:33:57;;;;;;;1.45;1.30;;;;;;;7.22;92.96;100668.34;4975397;28;20034;-89
2023/03/29 01:36:43;;;;;;;2.03;1.50;;;;;;;6.97;92.49;100626.91;4973756;28;20046;-89
2023/03/29 01:39:23;;;;;;;2.80;2.03;;;;;;;6.74;93.02;100581.97;4987529;28;20059;-89
2023/03/29 01:42:10;;;;;;;3.97;1.65;;;;;;;7.23;93.83;100660.41;4971021;28;20166;-92
2023/03/29 01:45:11;;;;;;;4.57;2.00;;;;;;;7.00;94.62;100629.47;4993255;28;20080;-88
2023/03/29 01:47:49;;;;;;;1.85;1.60;;;;;;;7.26;94.05;100665.56;4994005;28;20054;-88
2023/03/29 01:50:42;;;;;;;4.13;1.70;;;;;;;7.25;94.16;100655.94;4970445;28;20046;-93
2023/03/29 01:53:17;;;;;;;1.90;1.60;;;;;;;6.66;94.05;100555.84;4981480;28;20057;-90
2023/03/29 01:55:55;;;;;;;3.25;1.80;;;;;;;7.24;94.45;100656.84;4979963;28;20047;-88
2023/03/29 01:58:26;;;;;;;4.15;2.00;;;;;;;7.01;94.54;100618.03;4959829;28;20102;-91
2023/03/29 02:00:55;;;;;;;3.13;1.88;;;;;;;6.64;94.00;100557.66;4958428;28;20548;-90
2023/03/29 02:03:29;;;;;;;2.65;1.80;;;;;;;7.21;93.98;100662.22;4961322;28;20039;-92
2023/03/29 02:05:59;;;;;;;4.15;2.03;;;;;;;6.89;93.16;100594.69;4957581;28;20039;-90
2023/03/29 02:08:27;;;;;;;2.80;1.65;;;;;;;7.26;92.84;100659.44;4967551;28;20102;-87
2023/03/29 02:10:54;;;;;;;3.33;1.92;;;;;;;7.22;93.73;100642.03;4980632;28;20106;-86
2023/03/29 02:13:22;;;;;;;3.42;2.03;;;;;;;7.19;93.79;100645.59;4983581;28;20117;-90
2023/03/29 02:15:49;;;;;;;4.28;2.10;;;;;;;7.19;93.86;100637.69;4979205;28;20057;-90
2023/03/29 02:18:18;;;;;;;3.42;1.80;;;;;;;6.83;94.40;100583.47;4982882;28;20106;-91
2023/03/29 02:20:49;;;;;;;3.15;1.80;;;;;;;6.99;95.08;100613.69;4966192;28;20055;-90
2023/03/29 02:23:23;;;;;;;2.90;2.15;;;;;;;6.62;95.29;100555.97;4958825;28;20043;-90
2023/03/29 02:25:55;;;;;;;4.25;2.58;;;;;;;6.85;96.43;100606.19;4958708;28;20477;-91
2023/03/29 02:28:29;;;;;;;6.05;2.22;;;;;;;6.54;96.15;100550.94;4976393;28;20078;-92
2023/03/29 02:31:20;;;;;;;2.90;2.05;;;;;;;6.69;97.08;100574.19;4982070;28;20046;-87
2023/03/29 02:33:56;;;;;;;3.15;2.10;;;;;;;6.98;97.06;100618.09;4981326;28;20110;-91
2023/03/29 02:36:45;;;;;;;3.20;2.00;;;;;;;6.69;96.66;100570.69;4975845;28;20043;-91
2023/03/29 02:39:15;;;;;;;2.70;1.98;;;;;;;6.90;97.16;100601.69;4964669;28;20400;-90
2023/03/29 02:41:47;;;;;;;3.92;2.53;;;;;;;6.65;97.35;100556.75;4960171;28;20030;-90
2023/03/29 02:44:22;;;;;;;3.00;2.15;;;;;;;6.87;97.20;100593.88;4980577;28;20070;-88
2023/03/29 02:46:52;;;;;;;2.92;2.05;;;;;;;6.67;97.67;100561.97;4957936;28;20050;-90
2023/03/29 02:49:19;;;;;;;4.40;2.63;;;;;;;6.68;98.16;100568.97;4957790;28;20050;-91
2023/03/29 02:51:52;;;;;;;5.88;2.25;;;;;;;6.53;99.52;100553.59;4960853;28;20043;-90
2023/03/29 02:54:28;;;;;;;5.93;2.00;;;;;;;6.32;99.50;100511.22;4977310;28;20043;-91
2023/03/29 02:57:05;;;;;;;3.70;2.30;;;;;;;6.53;99.58;100546.59;4975576;28;20058;-88
2023/03/29 02:59:33;;;;;;;4.15;2.33;;;;;;;6.72;99.75;100582.91;4960519;28;20046;-92
2023/03/29 03:02:02;;;;;;;3.63;2.20;;;;;;;6.50;99.39;100541.41;4960466;28;20479;-87
2023/03/29 03:04:30;;;;;;;2.42;2.00;;;;;;;6.90;99.93;100600.81;4992055;28;20046;-86
2023/03/29 03:07:00;;;;;;;4.10;2.20;;;;;;;6.62;99.27;100535.78;4970601;28;20038;-94
2023/03/29 03:09:28;;;;;;;4.03;2.30;;;;;;;6.78;98.52;100559.03;4979517;28;20050;-91
2023/03/29 03:11:55;;;;;;;3.35;2.30;;;;;;;7.03;98.74;100595.16;4962497;28;20122;-92
2023/03/29 03:14:22;;;;;;;2.67;2.20;;;;;;;6.79;98.29;100542.34;4982568;28;20039;-89
2023/03/29 03:16:51;;;;;;;3.30;2.38;;;;;;;6.73;98.82;100537.25;4989003;28;20031;-88
2023/03/29 03:19:20;;;;;;;6.95;2.50;;;;;;;6.98;99.46;100583.00;4992057;28;20042;-86
2023/03/29 03:21:48;;;;;;;3.67;2.40;;;;;;;6.91;100.00;100589.38;4977222;28;20050;-87
2023/03/29 03:24:16;;;;;;;3.38;2.15;;;;;;;6.75;99.66;100549.47;4980746;28;20039;-88
2023/03/29 03:26:48;;;;;;;2.22;1.98;;;;;;;6.99;100.00;100582.97;4973847;28;20034;-87
2023/03/29 03:29:17;;;;;;;4.07;2.20;;;;;;;6.47;98.49;100488.88;4980686;28;20054;-87
2023/03/29 03:31:45;;;;;;;6.93;2.85;;;;;;;6.80;99.52;100539.66;4992923;28;20041;-86
2023/03/29 03:34:20;;;;;;;5.70;2.83;;;;;;;7.02;99.22;100568.84;4978008;28;20038;-85
2023/03/29 03:36:49;;;;;;;3.08;2.20;;;;;;;7.09;98.36;100570.38;4994180;28;20058;-87
2023/03/29 03:39:17;;;;;;;5.15;2.38;;;;;;;6.71;98.48;100518.88;4977021;28;20034;-87
2023/03/29 03:41:44;;;;;;;5.82;2.63;;;;;;;6.71;98.79;100518.03;4995500;28;20037;-85
2023/03/29 03:44:12;;;;;;;4.50;2.42;;;;;;;6.64;98.73;100502.41;4990890;28;20034;-85
2023/03/29 03:46:39;;;;;;;5.65;2.47;;;;;;;7.07;99.14;100572.22;4989163;28;20035;-87
2023/03/29 03:49:11;;;;;;;3.65;2.38;;;;;;;7.08;98.00;100573.09;4994452;28;20046;-85
2023/03/29 03:51:40;;;;;;;6.22;2.55;;;;;;;7.05;99.21;100576.69;4991458;28;20046;-86
2023/03/29 03:54:08;;;;;;;4.72;2.50;;;;;;;7.05;99.70;100555.59;4992836;28;20154;-86
2023/03/29 03:56:35;;;;;;;3.90;2.65;;;;;;;7.03;99.96;100568.81;4991472;28;20037;-87
2023/03/29 03:59:08;;;;;;;3.85;2.58;;;;;;;6.98;100.00;100569.84;4986686;28;20061;-92
2023/03/29 04:01:42;;;;;;;3.00;2.47;;;;;;;7.00;99.90;100571.53;4970093;28;20066;-86
2023/03/29 04:04:11;;;;;;;4.47;2.95;;;;;;;6.48;99.58;100474.81;4994224;28;20035;-85
2023/03/29 04:06:39;;;;;;;3.58;2.30;;;;;;;6.93;99.11;100555.94;4976054;28;20110;-89
2023/03/29 04:09:12;;;;;;;4.22;2.30;;;;;;;6.72;99.70;100512.72;4971606;28;20066;-91
2023/03/29 04:11:41;;;;;;;2.58;2.05;;;;;;;7.09;98.52;100562.47;4984451;28;20046;-88
2023/03/29 04:14:10;;;;;;;4.05;2.33;;;;;;;6.71;98.83;100510.13;4990932;28;20039;-90
2023/03/29 04:16:39;;;;;;;4.45;2.40;;;;;;;6.75;99.81;100519.66;4993662;28;20031;-89
2023/03/29 04:19:06;;;;;;;4.50;2.53;;;;;;;6.99;98.66;100556.66;4979985;28;20031;-90
2023/03/29 04:21:35;;;;;;;4.80;2.40;;;;;;;6.88;99.54;100552.59;4986464;28;20039;-91
2023/03/29 04:24:04;;;;;;;4.88;2.65;;;;;;;6.31;99.96;100456.88;4966435;28;20046;-94
2023/03/29 04:26:31;;;;;;;4.25;2.17;;;;;;;6.60;100.00;100513.94;4947717;28;20051;-91
2023/03/29 04:29:06;;;;;;;4.65;2.70;;;;;;;6.87;100.00;100564.91;4960954;28;20081;-92
2023/03/29 04:31:36;;;;;;;4.45;2.55;;;;;;;6.84;100.00;100562.34;4959727;28;20495;-91
2023/03/29 04:34:10;;;;;;;4.00;2.80;;;;;;;6.64;100.00;100526.09;4957349;28;20043;-90
2023/03/29 04:36:42;;;;;;;3.95;2.50;;;;;;;6.54;100.00;100495.69;4975713;28;20049;-92
2023/03/29 04:39:09;;;;;;;5.22;2.72;;;;;;;6.62;100.00;100530.53;4956956;28;20057;-92
2023/03/29 04:41:37;;;;;;;4.05;2.50;;;;;;;6.38;100.00;100485.66;4975621;28;20069;-92
2023/03/29 04:44:07;;;;;;;5.35;2.55;;;;;;;6.34;100.00;100487.50;4977146;28;20046;-89
2023/03/29 04:46:37;;;;;;;5.32;2.40;;;;;;;6.68;100.00;100534.75;4976317;28;20387;-91
2023/03/29 04:49:06;;;;;;;;;;;;;;;6.78;100.00;100545.88;4956233;28;20472;-90
2023/03/29 04:51:34;;;;;;;4.50;2.47;;;;;;;6.79;100.00;100537.06;4957483;28;19950;-91
2023/03/29 04:54:08;;;;;;;5.72;2.90;;;;;;;6.88;100.00;100542.94;4965266;28;20563;-90
2023/03/29 04:56:37;;;;;;;5.65;2.70;;;;;;;6.94;100.00;100558.53;4964036;28;20046;-92
2023/03/29 04:59:09;;;;;;;5.68;2.95;;;;;;;6.62;100.00;100487.56;4985561;28;20054;-89
2023/03/29 05:01:39;;;;;;;5.22;2.78;;;;;;;6.76;100.00;100524.88;4985474;28;20038;-91
2023/03/29 05:04:08;;;;;;;5.38;2.90;;;;;;;6.94;100.00;100545.38;4974516;28;20051;-87
2023/03/29 05:06:39;;;;;;;4.70;2.42;;;;;;;6.97;100.00;100549.69;4985447;28;20099;-90
2023/03/29 05:09:07;;;;;;;9.88;3.05;;;;;;;6.97;100.00;100542.66;4973629;28;20047;-90
2023/03/29 05:11:35;;;;;;;6.45;2.90;;;;;;;6.86;100.00;100533.38;4971801;28;20043;-89
2023/03/29 05:14:06;;;;;;;;;;;;;;;6.87;100.00;100543.84;4985055;28;20035;-89
2023/03/29 05:16:33;;;;;;;4.95;2.92;;;;;;;6.95;100.00;100539.22;4972796;28;20022;-92
2023/03/29 05:19:01;;;;;;;5.18;3.03;;;;;;;6.99;100.00;100546.13;4975459;28;20043;-89
2023/03/29 05:21:30;;;;;;;6.13;3.30;;;;;;;6.84;100.00;100517.63;4974406;28;20094;-89
2023/03/29 05:24:01;;;;;;;6.88;3.25;;;;;;;6.93;100.00;100538.38;4977043;28;20094;-91
2023/03/29 05:26:29;;;;;;;3.92;2.67;;;;;;;6.62;100.00;100483.16;4989017;28;20070;-91
2023/03/29 05:29:00;;;;;;;5.95;2.95;;;;;;;7.05;100.00;100545.06;4971407;28;20054;-88
2023/03/29 05:31:31;;;;;;;;;;;;;;;7.11;100.00;100542.25;4994688;28;20035;-89
2023/03/29 05:33:58;;;;;;;6.05;2.88;;;;;;;6.90;100.00;100519.22;4979666;28;19929;-91
2023/03/29 05:36:27;;;;;;;4.55;3.13;;;;;;;7.01;100.00;100552.19;4969443;28;20043;-90
2023/03/29 05:39:06;;;;;;;4.80;2.63;;;;;;;6.60;100.00;100498.16;4995460;28;20046;-88
2023/03/29 05:41:34;;;;;;;5.43;3.92;;;;;;;6.98;100.00;100560.19;4977420;28;20035;-90
2023/03/29 05:44:01;;;;;;;6.55;3.58;;;;;;;6.88;100.00;100539.44;4977504;28;20038;-90
2023/03/29 05:46:31;;;;;;;5.83;3.43;;;;;;;6.34;100.00;100445.41;4993926;28;20039;-91
2023/03/29 05:49:01;;;;;;;6.63;3.50;;;;;;;6.86;100.00;100513.16;4987427;28;20038;-91
2023/03/29 05:51:34;;;;;;;6.65;3.65;;;;;;;7.10;100.00;100531.75;4980888;28;20090;-90
2023/03/29 05:54:08;;;;;;;5.15;3.30;;;;;;;7.12;100.00;100529.94;4992027;28;20046;-89
2023/03/29 05:56:37;;;;;;;7.20;3.70;;;;;;;6.94;100.00;100497.13;4975323;28;20059;-89
2023/03/29 05:59:08;;;;;;;8.25;3.53;;;;;;;6.94;100.00;100481.31;4985187;28;20042;-92
2023/03/29 06:01:38;;;;;;;6.38;3.78;;;;;;;6.81;100.00;100451.03;4966725;28;20102;-91
2023/03/29 06:04:06;;;;;;;10.00;4.32;;;;;;;7.07;100.00;100487.09;4964540;28;20057;-90
2023/03/29 06:06:35;;;;;;;8.52;4.25;;;;;;;7.20;100.00;100512.16;4961759;28;20043;-92
2023/03/29 06:09:02;;;;;;;7.63;3.75;;;;;;;7.19;98.94;100500.75;4961611;28;20050;-91
2023/03/29 06:11:31;;;;;;;6.15;3.95;;;;;;;7.17;99.67;100489.41;4978977;28;20106;-90
2023/03/29 06:14:01;;;;;;;7.97;4.43;;;;;;;7.58;98.65;100540.75;4957878;28;20057;-91
2023/03/29 06:16:29;;;;;;;10.13;5.10;;;;;;;7.38;97.93;100483.44;4961495;28;20047;-92
2023/03/29 06:18:59;;;;;;;8.40;4.47;;;;;;;7.76;97.51;100544.56;4962771;28;20110;-89
2023/03/29 06:21:30;;;;;;;10.63;4.90;;;;;;;7.24;95.64;100456.66;4956896;28;20065;-92
2023/03/29 06:23:58;;;;;;;8.60;4.70;;;;;;;7.82;96.50;100548.78;4965204;28;20042;-92
2023/03/29 06:26:34;;;;;;;7.05;4.43;;;;;;;7.57;94.93;100502.13;4964295;28;20111;-90
2023/03/29 06:29:03;;;;;;;5.80;4.07;;;;;;;7.68;95.73;100510.56;4985732;28;20075;-90
2023/03/29 06:31:31;;;;;;;7.90;4.38;;;;;;;7.61;95.02;100495.84;4981403;28;20042;-90
2023/03/29 06:34:00;;;;;;;9.20;5.00;;;;;;;7.84;96.52;100554.88;4965385;28;20251;-90
2023/03/29 06:36:27;;;;;;;8.00;4.68;;;;;;;7.81;97.03;100547.91;4958620;28;20487;-90
2023/03/29 06:38:55;;;;;;;10.63;4.65;;;;;;;7.34;96.66;100489.72;4972076;28;20087;-92
2023/03/29 06:41:25;;;;;;;7.68;4.80;;;;;;;7.72;97.93;100558.75;4963879;28;20046;-90
2023/03/29 06:43:53;;;;;;;10.10;4.53;;;;;;;7.27;98.07;100469.75;4968527;28;20048;-91
2023/03/29 06:46:21;;;;;;;10.50;4.90;;;;;;;8.08;97.54;100554.88;4987235;28;20058;-88
2023/03/29 06:48:50;;;;;;;8.20;4.82;;;;;;;8.32;94.98;100555.00;4970835;28;20051;-93
2023/03/29 06:51:17;;;;;;;10.43;5.00;;;;;;;8.44;94.48;100544.00;4984919;28;20180;-90
2023/03/29 06:53:51;;;;;;;11.75;5.57;;;;;;;8.03;91.54;100461.88;4983614;28;20061;-90
2023/03/29 06:56:23;;;;;;;8.30;5.10;;;;;;;8.17;91.50;100498.34;4983936;28;20058;-90
2023/03/29 06:58:50;;;;;;;7.40;4.25;;;;;;;8.13;91.41;100470.34;4984151;28;20055;-90
2023/03/29 07:01:22;;;;;;;7.18;4.45;;;;;;;8.34;89.60;100495.97;4967551;28;20061;-90
2023/03/29 07:03:50;;;;;;;10.88;5.45;;;;;;;8.30;89.28;100493.47;4963816;28;20106;-89
2023/03/29 07:06:47;;;;;;;6.55;4.68;;;;;;;8.54;90.47;100540.09;4980612;28;20109;-90
2023/03/29 07:09:18;;;;;;;7.05;4.60;;;;;;;8.66;90.71;100557.28;4942066;28;20061;-90
2023/03/29 07:11:48;;;;;;;9.63;5.13;;;;;;;8.46;90.49;100509.66;4963852;28;20101;-89
2023/03/29 07:14:16;;;;;;;9.63;4.53;;;;;;;8.79;88.64;100558.56;4963094;28;20377;-91
2023/03/29 07:16:45;;;;;;;9.20;4.55;;;;;;;8.63;88.76;100558.28;4988326;28;20066;-89
2023/03/29 07:19:14;;;;;;;6.53;4.57;;;;;;;8.39;90.05;100515.13;4976308;28;20876;-88
2023/03/29 07:21:42;;;;;;;6.32;4.60;;;;;;;8.67;88.58;100561.63;4972163;28;20039;-91
2023/03/29 07:24:11;;;;;;;7.95;4.47;;;;;;;8.47;90.03;100559.75;4961030;28;20043;-91
2023/03/29 07:26:40;;;;;;;8.52;4.53;;;;;;;8.07;91.35;100503.06;4977930;28;20039;-91
2023/03/29 07:29:27;;;;;;;9.75;4.65;;;;;;;8.45;91.82;100572.13;4962175;28;20051;-91
2023/03/29 07:31:57;;;;;;;8.93;4.53;;;;;;;8.31;91.98;100540.06;4978047;28;20106;-91
2023/03/29 07:34:26;;;;;;;6.15;4.53;;;;;;;8.32;90.48;100518.06;4961278;28;20110;-92
2023/03/29 07:36:53;;;;;;;8.20;4.78;;;;;;;8.65;88.06;100558.22;4961882;28;20394;-92
2023/03/29 07:39:21;;;;;;;7.47;4.20;;;;;;;8.83;87.68;100583.06;4960612;28;20078;-91
2023/03/29 07:41:51;;;;;;;6.93;4.70;;;;;;;8.86;87.62;100565.31;4979676;28;20408;-90
2023/03/29 07:44:20;;;;;;;7.93;4.45;;;;;;;9.00;86.41;100580.66;4960681;28;20074;-89
2023/03/29 07:46:48;;;;;;;8.38;4.45;;;;;;;8.99;84.86;100557.81;4974973;28;20600;-92
2023/03/29 07:49:35;;;;;;;6.28;4.72;;;;;;;9.14;84.57;100583.63;4979645;28;20075;-93
2023/03/29 07:52:07;;;;;;;7.75;4.38;;;;;;;9.02;83.67;100552.41;4974299;28;20031;-91
2023/03/29 07:54:39;;;;;;;7.57;4.57;;;;;;;8.88;84.06;100528.31;4975770;28;20053;-90
2023/03/29 07:57:10;;;;;;;6.22;4.75;;;;;;;9.05;84.71;100586.63;4975220;28;20490;-89
2023/03/29 07:59:54;;;;;;;9.13;4.88;;;;;;;8.59;86.13;100538.19;4954738;28;20038;-90
2023/03/29 08:02:37;;;;;;;7.68;4.43;;;;;;;8.31;87.22;100493.44;4963558;28;20137;-88
2023/03/29 08:05:07;;;;;;;6.05;4.28;;;;;;;8.77;84.24;100569.19;4958243;28;20047;-91
2023/03/29 08:08:08;;;;;;;7.75;3.53;;;;;;;8.48;83.93;100572.03;4962488;28;20507;-90
2023/03/29 08:10:36;;;;;;;4.78;3.30;;;;;;;8.59;85.27;100592.75;4973596;28;20047;-91
2023/03/29 08:13:07;;;;;;;10.00;4.30;;;;;;;8.51;84.85;100561.31;4964253;28;20056;-91
2023/03/29 08:15:44;;;;;;;6.55;3.72;;;;;;;8.21;85.07;100493.78;4945265;28;20043;-91
2023/03/29 08:18:25;;;;;;;6.30;3.70;;;;;;;8.45;83.54;100500.88;4957759;28;20043;-89
2023/03/29 08:21:07;;;;;;;5.43;3.72;;;;;;;9.05;82.56;100568.16;4942724;28;20039;-90
2023/03/29 08:23:34;;;;;;;6.13;3.35;;;;;;;9.39;80.08;100587.06;4969272;28;20121;-90
2023/03/29 08:26:07;;;;;;;;;;;;;;;9.58;79.75;100586.34;4973218;28;20627;-88
2023/03/29 08:28:36;;;;;;;6.85;3.78;;;;;;;9.75;78.34;100582.13;4956739;28;19930;-90
2023/03/29 08:31:08;;;;;;;6.30;3.90;;;;;;;9.84;77.01;100562.34;4956175;28;20054;-91
2023/03/29 08:33:36;;;;;;;8.63;3.93;;;;;;;9.55;75.63;100525.66;4956062;28;20047;-91
2023/03/29 08:36:05;;;;;;;5.80;3.80;;;;;;;9.68;77.30;100551.53;4941605;28;20038;-89
2023/03/29 08:38:32;;;;;;;6.60;3.78;;;;;;;9.73;76.96;100543.44;4957011;28;20035;-89
2023/03/29 08:41:28;;;;;;;7.97;4.10;;;;;;;9.83;77.09;100560.63;4976531;28;20070;-89
2023/03/29 08:44:20;;;;;;;8.70;4.28;;;;;;;9.58;76.35;100526.41;4981428;28;20114;-88
2023/03/29 08:47:28;;;;;;;6.07;4.32;;;;;;;9.83;76.23;100565.91;4973159;28;20043;-90
2023/03/29 08:49:56;;;;;;;7.90;3.90;;;;;;;9.93;77.49;100546.09;4960256;28;20107;-91
2023/03/29 08:52:47;;;;;;;7.63;4.47;;;;;;;9.98;76.16;100560.00;4981609;28;20049;-88
2023/03/29 08:55:34;;;;;;;6.10;4.63;;;;;;;9.79;76.09;100503.50;4964158;28;20044;-91
2023/03/29 08:58:10;;;;;;;6.50;4.57;;;;;;;10.43;75.43;100553.69;4979559;28;20039;-91
2023/03/29 09:00:45;;;;;;;9.77;4.40;;;;;;;10.40;71.73;100516.75;4959820;28;20057;-91
2023/03/29 09:03:30;;;;;;;7.22;4.35;;;;;;;10.62;69.94;100492.81;4964581;28;20118;-92
2023/03/29 09:06:25;;;;;;;8.23;4.53;;;;;;;10.65;68.58;100472.38;4964198;28;20042;-89
2023/03/29 09:08:56;;;;;;;9.00;5.18;;;;;;;11.23;67.54;100533.22;4993093;28;20042;-89
2023/03/29 09:14:59;;;;;;;6.88;4.38;;;;;;;11.46;65.05;100542.75;5291526;23;20044;-89
2023/03/29 09:18:00;;;;;;;5.93;4.50;;;;;;;11.33;66.05;100571.66;5245309;23;20018;31
2023/03/29 09:21:16;;;;;;;9.80;4.30;;;;;;;10.97;67.33;100550.34;5253462;23;20037;-89
2023/03/29 09:24:05;;;;;;;6.25;4.20;;;;;;;11.03;67.70;100565.94;4965101;28;20030;-89
2023/03/29 09:26:46;;;;;;;9.02;4.80;;;;;;;10.61;68.29;100514.94;5024437;28;20088;-89
2023/03/29 09:29:45;;;;;;;6.80;4.00;;;;;;;10.92;68.31;100539.09;5000315;28;20045;-91
2023/03/29 09:32:30;;;;;;;7.32;4.38;;;;;;;11.07;66.66;100540.19;5026645;28;20076;-91
2023/03/29 09:35:19;;;;;;;7.22;3.95;;;;;;;11.25;63.55;100563.19;4984856;28;20049;-92
2023/03/29 09:37:50;;;;;;;5.78;3.55;;;;;;;10.92;64.48;100527.63;5016582;28;20519;-90
2023/03/29 09:40:42;;;;;;;5.82;3.83;;;;;;;11.00;64.76;100536.13;4995875;28;20092;-92
2023/03/29 09:43:31;;;;;;;8.00;3.42;;;;;;;11.16;64.85;100553.03;5028993;28;20052;-87
2023/03/29 09:46:03;;;;;;;7.25;5.20;;;;;;;11.23;64.55;100549.13;5026996;28;20096;-88
2023/03/29 09:48:36;;;;;;;4.70;3.47;;;;;;;11.42;63.53;100528.78;5028595;28;20068;-89
2023/03/29 09:51:06;;;;;;;5.68;3.63;;;;;;;11.89;61.47;100557.44;5018776;28;20058;-90
2023/03/29 09:53:35;;;;;;;5.90;3.72;;;;;;;11.79;60.80;100546.44;5017192;28;20475;-91
2023/03/29 09:56:03;;;;;;;6.35;3.67;;;;;;;11.32;61.23;100493.03;5013134;28;20048;-92
2023/03/29 09:58:31;;;;;;;5.80;3.35;;;;;;;11.24;61.84;100522.56;5000210;28;20065;-92
2023/03/29 10:01:03;;;;;;;5.22;3.78;;;;;;;11.38;62.38;100507.78;4999449;28;20054;-92
2023/03/29 10:03:33;;;;;;;5.93;4.20;;;;;;;12.00;61.28;100563.06;4983008;28;20132;-91
2023/03/29 10:06:04;;;;;;;5.45;3.50;;;;;;;11.90;61.22;100570.63;5016329;28;20038;-91
2023/03/29 10:08:42;;;;;;;7.15;3.78;;;;;;;11.78;62.44;100565.94;5003860;28;20046;-90
2023/03/29 10:11:33;;;;;;;5.20;3.67;;;;;;;11.88;62.19;100545.09;5006241;28;20053;-89
2023/03/29 10:14:11;;;;;;;5.63;3.58;;;;;;;12.01;61.86;100555.97;5002831;28;20035;-90
2023/03/29 10:16:44;;;;;;;6.70;3.92;;;;;;;12.08;62.34;100555.59;5021390;28;20026;-89
2023/03/29 10:19:36;;;;;;;6.70;3.97;;;;;;;11.63;63.06;100486.22;5031233;28;20041;-90
2023/03/29 10:22:16;;;;;;;7.28;4.03;;;;;;;11.73;63.46;100504.25;5028447;28;20037;-91
2023/03/29 10:24:50;;;;;;;6.50;3.65;;;;;;;11.53;64.76;100555.63;5031168;28;20105;-91
2023/03/29 10:27:29;;;;;;;7.50;3.78;;;;;;;11.42;66.17;100547.31;5010357;28;20056;-88
2023/03/29 10:30:00;;;;;;;7.60;4.13;;;;;;;11.58;66.25;100543.00;5028702;28;20038;-89
2023/03/29 10:32:37;;;;;;;5.43;3.65;;;;;;;11.64;65.93;100543.66;5020519;28;20053;-92
2023/03/29 10:35:27;;;;;;;4.97;3.67;;;;;;;11.51;66.56;100501.78;5009387;28;20494;-91
2023/03/29 10:38:09;;;;;;;5.80;4.07;;;;;;;11.54;65.21;100475.13;5006020;28;20044;-91
2023/03/29 10:40:46;;;;;;;6.30;4.13;;;;;;;11.38;65.85;100422.94;5023663;28;20333;-91
2023/03/29 10:43:25;;;;;;;5.57;3.85;;;;;;;12.18;64.70;100497.56;5030254;28;20042;-91
2023/03/29 10:46:25;;;;;;;7.13;3.67;;;;;;;12.11;64.44;100459.88;5041000;28;20041;-92
2023/03/29 10:49:00;;;;;;;;;;;;;;;12.69;63.36;100509.03;5039688;28;20663;-92
2023/03/29 10:51:34;;;;;;;6.95;4.43;;;;;;;12.89;60.09;100483.09;5022795;28;19917;-90
2023/03/29 10:54:04;;;;;;;6.07;4.32;;;;;;;13.28;58.56;100506.63;5028846;28;20084;-90
2023/03/29 10:56:56;;;;;;;6.78;4.82;;;;;;;13.34;58.07;100486.81;5030918;28;20061;-89
2023/03/29 11:00:01;;;;;;;6.90;3.65;;;;;;;13.12;58.00;100465.00;5031336;28;20060;-93
2023/03/29 11:03:02;;;;;;;6.28;4.00;;;;;;;12.79;60.80;100511.09;5039503;28;20110;-90
2023/03/29 11:05:47;;;;;;;7.57;4.07;;;;;;;12.43;62.57;100506.00;5019735;28;20101;-92
2023/03/29 11:08:18;;;;;;;5.60;3.80;;;;;;;12.47;63.59;100490.72;5019560;28;20046;-91
2023/03/29 11:11:08;;;;;;;6.07;3.60;;;;;;;12.98;60.64;100510.97;5011132;28;20057;-91
2023/03/29 11:14:13;;;;;;;6.70;4.32;;;;;;;13.34;60.43;100505.44;5018834;28;20031;-90
2023/03/29 11:17:31;;;;;;;5.65;3.97;;;;;;;13.75;58.74;100503.06;5030835;28;20056;-91
2023/03/29 11:20:30;;;;;;;5.97;3.63;;;;;;;13.46;58.41;100510.06;5032334;28;20049;-89
2023/03/29 11:23:06;;;;;;;7.32;4.00;;;;;;;13.00;59.60;100496.66;5039770;28;20068;-92
2023/03/29 11:25:54;;;;;;;6.20;4.00;;;;;;;12.90;62.05;100498.13;5035147;28;20042;-90
2023/03/29 11:28:27;;;;;;;6.80;4.15;;;;;;;13.14;61.56;100479.94;5039372;28;20113;-90
2023/03/29 11:31:40;;;;;;;5.10;3.83;;;;;;;13.73;59.56;100502.28;5033950;28;20406;-92
2023/03/29 11:34:51;;;;;;;6.65;4.38;;;;;;;14.11;57.79;100502.69;5012405;28;20101;-92
2023/03/29 11:37:42;;;;;;;8.07;4.13;;;;;;;14.50;56.13;100499.44;5027622;28;20481;-92
2023/03/29 11:40:34;;;;;;;5.60;4.07;;;;;;;14.04;57.20;100491.53;5025958;28;20092;-91
2023/03/29 11:43:15;;;;;;;6.72;4.03;;;;;;;13.75;58.49;100487.09;5026026;28;20044;-91
2023/03/29 11:46:07;;;;;;;7.45;3.78;;;;;;;13.86;59.44;100491.75;5027771;28;20050;-92
2023/03/29 11:48:57;;;;;;;9.60;4.32;;;;;;;13.90;58.61;100478.19;5036639;28;20037;-90
2023/03/29 11:51:34;;;;;;;7.68;3.80;;;;;;;13.92;59.33;100464.78;5036874;28;20046;-92
2023/03/29 11:54:28;;;;;;;8.77;4.80;;;;;;;13.87;59.87;100449.09;5024482;28;20041;-91
2023/03/29 11:57:09;;;;;;;7.25;4.20;;;;;;;14.10;59.70;100473.50;5028863;28;20042;-90
2023/03/29 11:59:46;;;;;;;6.88;4.40;;;;;;;13.59;60.71;100447.22;5033080;28;20038;-91
2023/03/29 12:02:28;;;;;;;8.13;5.35;;;;;;;13.61;61.95;100468.41;5016717;28;20057;-90
2023/03/29 12:05:12;;;;;;;6.10;4.17;;;;;;;13.57;62.33;100449.09;5020754;28;20045;-89
2023/03/29 12:07:54;;;;;;;7.68;4.90;;;;;;;13.89;62.14;100478.28;5021518;28;20498;-93
2023/03/29 12:10:26;;;;;;;8.93;4.40;;;;;;;13.73;62.31;100445.53;5019011;28;20042;-91
2023/03/29 12:13:01;;;;;;;7.95;4.10;;;;;;;13.81;62.13;100456.59;5016326;28;20139;-90